sensor_id;sensor_type;location;lat;lon;timestamp;pressure;altitude;pressure_sealevel;temperature;humidity
56052;BME280;41919;42.648;23.384;2022-09-29T00:00:52;93680.25;;;16.73;68.98
56052;BME280;41919;42.648;23.384;2022-09-29T00:03:18;93691.06;;;16.61;70.32
56052;BME280;41919;42.648;23.384;2022-09-29T00:05:48;93609.72;;;15.97;70.46
56052;BME280;41919;42.648;23.384;2022-09-29T00:08:15;93724.31;;;16.67;70.60
56052;BME280;41919;42.648;23.384;2022-09-29T00:10:40;93705.03;;;16.52;71.68
56052;BME280;41919;42.648;23.384;2022-09-29T00:13:06;93667.50;;;16.19;71.75
56052;BME280;41919;42.648;23.384;2022-09-29T00:15:31;93724.22;;;16.32;72.21
56052;BME280;41919;42.648;23.384;2022-09-29T00:17:57;93661.06;;;15.79;72.69
56052;BME280;41919;42.648;23.384;2022-09-29T00:20:22;93648.91;;;15.73;73.33
56052;BME280;41919;42.648;23.384;2022-09-29T00:22:50;93722.88;;;16.19;73.01
56052;BME280;41919;42.648;23.384;2022-09-29T00:25:17;93732.31;;;16.10;73.67
56052;BME280;41919;42.648;23.384;2022-09-29T00:27:43;93674.41;;;15.72;74.93
56052;BME280;41919;42.648;23.384;2022-09-29T00:30:09;93648.53;;;15.59;74.52
56052;BME280;41919;42.648;23.384;2022-09-29T00:32:35;93656.47;;;15.64;74.50
56052;BME280;41919;42.648;23.384;2022-09-29T00:35:00;93663.19;;;15.87;74.26
56052;BME280;41919;42.648;23.384;2022-09-29T00:37:26;93700.47;;;16.32;72.67
56052;BME280;41919;42.648;23.384;2022-09-29T00:39:51;93639.78;;;15.96;73.15
56052;BME280;41919;42.648;23.384;2022-09-29T00:42:19;93706.56;;;16.32;73.30
56052;BME280;41919;42.648;23.384;2022-09-29T00:45:21;93711.25;;;16.20;73.73
56052;BME280;41919;42.648;23.384;2022-09-29T00:47:52;93644.09;;;15.64;74.28
56052;BME280;41919;42.648;23.384;2022-09-29T00:51:00;93700.09;;;15.97;73.68
56052;BME280;41919;42.648;23.384;2022-09-29T00:53:19;93718.06;;;16.11;73.88
56052;BME280;41919;42.648;23.384;2022-09-29T00:55:59;93640.97;;;15.67;73.87
56052;BME280;41919;42.648;23.384;2022-09-29T00:58:34;93691.22;;;16.14;73.70
56052;BME280;41919;42.648;23.384;2022-09-29T01:01:03;93651.59;;;15.93;73.17
56052;BME280;41919;42.648;23.384;2022-09-29T01:03:36;93641.03;;;15.78;72.52
56052;BME280;41919;42.648;23.384;2022-09-29T01:06:09;93709.66;;;16.14;73.19
56052;BME280;41919;42.648;23.384;2022-09-29T01:09:10;93712.59;;;16.17;74.24
56052;BME280;41919;42.648;23.384;2022-09-29T01:11:38;93671.16;;;16.02;73.08
56052;BME280;41919;42.648;23.384;2022-09-29T01:14:07;93692.25;;;16.13;72.00
56052;BME280;41919;42.648;23.384;2022-09-29T01:16:35;93694.34;;;16.00;73.18
56052;BME280;41919;42.648;23.384;2022-09-29T01:19:12;93649.66;;;15.63;73.70
56052;BME280;41919;42.648;23.384;2022-09-29T01:35:34;93704.41;;;16.14;71.63
56052;BME280;41919;42.648;23.384;2022-09-29T01:43:19;93667.34;;;15.73;71.79
56052;BME280;41919;42.648;23.384;2022-09-29T01:46:01;93711.69;;;15.91;71.82
56052;BME280;41919;42.648;23.384;2022-09-29T01:48:38;93717.69;;;15.81;72.01
56052;BME280;41919;42.648;23.384;2022-09-29T01:51:11;93727.22;;;15.87;71.99
56052;BME280;41919;42.648;23.384;2022-09-29T01:53:45;93714.31;;;15.86;71.66
56052;BME280;41919;42.648;23.384;2022-09-29T01:56:20;93723.59;;;16.04;72.13
56052;BME280;41919;42.648;23.384;2022-09-29T01:58:53;93730.28;;;16.27;71.30
56052;BME280;41919;42.648;23.384;2022-09-29T02:01:23;93734.78;;;16.37;70.06
56052;BME280;41919;42.648;23.384;2022-09-29T02:04:00;93720.75;;;16.26;69.83
56052;BME280;41919;42.648;23.384;2022-09-29T02:06:32;93730.25;;;16.17;70.24
56052;BME280;41919;42.648;23.384;2022-09-29T02:09:06;93672.16;;;15.91;70.26
56052;BME280;41919;42.648;23.384;2022-09-29T02:11:34;93716.31;;;16.32;69.56
56052;BME280;41919;42.648;23.384;2022-09-29T02:14:11;93685.94;;;16.14;69.69
56052;BME280;41919;42.648;23.384;2022-09-29T02:16:47;93676.91;;;15.84;69.95
56052;BME280;41919;42.648;23.384;2022-09-29T02:19:20;93740.97;;;16.00;71.47
56052;BME280;41919;42.648;23.384;2022-09-29T02:21:47;93661.25;;;15.19;73.07
56052;BME280;41919;42.648;23.384;2022-09-29T02:24:13;93737.84;;;15.60;73.57
56052;BME280;41919;42.648;23.384;2022-09-29T02:26:39;93687.75;;;15.07;74.56
56052;BME280;41919;42.648;23.384;2022-09-29T02:29:07;93738.06;;;15.54;73.70
56052;BME280;41919;42.648;23.384;2022-09-29T02:31:35;93695.31;;;14.99;74.50
56052;BME280;41919;42.648;23.384;2022-09-29T02:34:02;93678.88;;;14.54;76.66
56052;BME280;41919;42.648;23.384;2022-09-29T02:45:32;93690.66;;;14.46;77.76
56052;BME280;41919;42.648;23.384;2022-09-29T02:59:21;93756.78;;;14.87;78.18
56052;BME280;41919;42.648;23.384;2022-09-29T03:01:53;93715.63;;;14.76;77.64
56052;BME280;41919;42.648;23.384;2022-09-29T03:04:22;93686.63;;;14.66;77.55
56052;BME280;41919;42.648;23.384;2022-09-29T03:06:48;93740.50;;;14.90;77.75
56052;BME280;41919;42.648;23.384;2022-09-29T03:09:14;93730.59;;;14.70;78.36
56052;BME280;41919;42.648;23.384;2022-09-29T03:11:40;93727.63;;;14.62;78.83
56052;BME280;41919;42.648;23.384;2022-09-29T03:14:05;93678.47;;;14.13;79.38
56052;BME280;41919;42.648;23.384;2022-09-29T03:16:31;93648.00;;;13.90;80.25
56052;BME280;41919;42.648;23.384;2022-09-29T03:18:57;93625.88;;;13.81;81.26
56052;BME280;41919;42.648;23.384;2022-09-29T03:21:22;93627.28;;;13.44;82.95
56052;BME280;41919;42.648;23.384;2022-09-29T03:23:48;93720.13;;;13.60;84.61
56052;BME280;41919;42.648;23.384;2022-09-29T03:26:13;93721.19;;;13.42;85.46
56052;BME280;41919;42.648;23.384;2022-09-29T03:28:39;93684.25;;;13.10;85.78
56052;BME280;41919;42.648;23.384;2022-09-29T03:31:08;93708.66;;;13.10;86.12
56052;BME280;41919;42.648;23.384;2022-09-29T03:33:35;93668.19;;;13.23;86.05
56052;BME280;41919;42.648;23.384;2022-09-29T03:36:01;93738.84;;;14.08;84.02
56052;BME280;41919;42.648;23.384;2022-09-29T03:38:28;93708.25;;;13.97;81.93
56052;BME280;41919;42.648;23.384;2022-09-29T03:40:53;93734.88;;;14.05;81.91
56052;BME280;41919;42.648;23.384;2022-09-29T03:43:19;93741.34;;;14.20;81.20
56052;BME280;41919;42.648;23.384;2022-09-29T03:45:48;93731.56;;;14.37;81.38
56052;BME280;41919;42.648;23.384;2022-09-29T03:48:14;93713.69;;;14.39;80.19
56052;BME280;41919;42.648;23.384;2022-09-29T03:50:39;93717.09;;;14.62;78.92
56052;BME280;41919;42.648;23.384;2022-09-29T03:53:04;93725.06;;;14.67;78.27
56052;BME280;41919;42.648;23.384;2022-09-29T03:55:30;93743.31;;;14.79;77.64
56052;BME280;41919;42.648;23.384;2022-09-29T03:57:56;93745.47;;;14.87;78.61
56052;BME280;41919;42.648;23.384;2022-09-29T04:00:21;93743.63;;;14.87;79.61
56052;BME280;41919;42.648;23.384;2022-09-29T04:02:46;93750.81;;;14.97;80.05
56052;BME280;41919;42.648;23.384;2022-09-29T04:05:12;93730.56;;;14.98;80.31
56052;BME280;41919;42.648;23.384;2022-09-29T04:07:37;93658.56;;;14.49;80.45
56052;BME280;41919;42.648;23.384;2022-09-29T04:10:03;93738.00;;;15.06;79.46
56052;BME280;41919;42.648;23.384;2022-09-29T04:12:29;93721.66;;;14.72;80.04
56052;BME280;41919;42.648;23.384;2022-09-29T04:14:54;93705.03;;;14.66;79.52
56052;BME280;41919;42.648;23.384;2022-09-29T04:17:19;93687.56;;;14.55;79.30
56052;BME280;41919;42.648;23.384;2022-09-29T04:19:45;93729.19;;;14.90;79.34
56052;BME280;41919;42.648;23.384;2022-09-29T04:22:11;93744.84;;;15.07;79.25
56052;BME280;41919;42.648;23.384;2022-09-29T04:24:38;93670.75;;;14.56;79.12
56052;BME280;41919;42.648;23.384;2022-09-29T04:27:04;93725.91;;;14.50;80.60
56052;BME280;41919;42.648;23.384;2022-09-29T04:29:29;93699.22;;;14.09;81.92
56052;BME280;41919;42.648;23.384;2022-09-29T04:31:55;93761.69;;;14.29;82.66
56052;BME280;41919;42.648;23.384;2022-09-29T04:34:20;93752.38;;;14.44;82.31
56052;BME280;41919;42.648;23.384;2022-09-29T04:36:45;93764.84;;;14.54;81.69
56052;BME280;41919;42.648;23.384;2022-09-29T04:39:11;93762.78;;;14.34;80.39
56052;BME280;41919;42.648;23.384;2022-09-29T04:41:37;93753.97;;;14.23;79.41
56052;BME280;41919;42.648;23.384;2022-09-29T04:44:04;93704.22;;;13.89;79.71
56052;BME280;41919;42.648;23.384;2022-09-29T04:46:30;93685.09;;;13.93;80.13
56052;BME280;41919;42.648;23.384;2022-09-29T04:48:55;93750.09;;;14.52;79.97
56052;BME280;41919;42.648;23.384;2022-09-29T04:51:21;93730.25;;;14.62;78.99
56052;BME280;41919;42.648;23.384;2022-09-29T04:53:46;93722.84;;;14.59;78.14
56052;BME280;41919;42.648;23.384;2022-09-29T04:56:12;93753.38;;;14.60;77.60
56052;BME280;41919;42.648;23.384;2022-09-29T04:58:37;93701.16;;;14.19;79.06
56052;BME280;41919;42.648;23.384;2022-09-29T05:01:10;93682.38;;;14.32;79.18
56052;BME280;41919;42.648;23.384;2022-09-29T05:03:39;93729.25;;;14.68;78.96
56052;BME280;41919;42.648;23.384;2022-09-29T05:06:06;93756.59;;;15.32;76.38
56052;BME280;41919;42.648;23.384;2022-09-29T05:08:32;93737.50;;;15.89;72.55
56052;BME280;41919;42.648;23.384;2022-09-29T05:11:02;93696.53;;;15.66;71.91
56052;BME280;41919;42.648;23.384;2022-09-29T05:13:28;93736.31;;;16.17;71.61
56052;BME280;41919;42.648;23.384;2022-09-29T05:15:56;93740.66;;;16.59;70.39
56052;BME280;41919;42.648;23.384;2022-09-29T05:18:22;93734.00;;;16.36;70.01
56052;BME280;41919;42.648;23.384;2022-09-29T05:20:48;93672.91;;;15.28;73.81
56052;BME280;41919;42.648;23.384;2022-09-29T05:23:14;93725.00;;;15.32;74.72
56052;BME280;41919;42.648;23.384;2022-09-29T05:25:39;93709.31;;;15.47;74.46
56052;BME280;41919;42.648;23.384;2022-09-29T05:28:04;93691.75;;;16.16;70.84
56052;BME280;41919;42.648;23.384;2022-09-29T05:30:30;93759.47;;;16.94;69.38
56052;BME280;41919;42.648;23.384;2022-09-29T05:32:56;93699.75;;;17.54;66.04
56052;BME280;41919;42.648;23.384;2022-09-29T05:35:21;93737.84;;;19.23;61.52
56052;BME280;41919;42.648;23.384;2022-09-29T05:37:47;93721.16;;;20.29;57.19
56052;BME280;41919;42.648;23.384;2022-09-29T05:40:12;93676.16;;;20.62;54.29
56052;BME280;41919;42.648;23.384;2022-09-29T05:42:37;93721.16;;;21.90;52.39
56052;BME280;41919;42.648;23.384;2022-09-29T05:45:05;93643.38;;;22.71;48.69
56052;BME280;41919;42.648;23.384;2022-09-29T05:47:32;93683.59;;;23.60;44.72
56052;BME280;41919;42.648;23.384;2022-09-29T05:49:57;93738.50;;;24.63;43.05
56052;BME280;41919;42.648;23.384;2022-09-29T05:52:23;93746.69;;;25.63;41.80
56052;BME280;41919;42.648;23.384;2022-09-29T05:54:48;93713.94;;;26.22;39.94
56052;BME280;41919;42.648;23.384;2022-09-29T05:57:15;93734.72;;;27.27;36.74
56052;BME280;41919;42.648;23.384;2022-09-29T05:59:41;93738.47;;;28.13;35.26
56052;BME280;41919;42.648;23.384;2022-09-29T06:02:07;93728.84;;;28.74;34.15
56052;BME280;41919;42.648;23.384;2022-09-29T06:04:33;93761.53;;;29.69;33.30
56052;BME280;41919;42.648;23.384;2022-09-29T06:06:59;93710.88;;;30.35;30.18
56052;BME280;41919;42.648;23.384;2022-09-29T06:09:25;93745.28;;;30.58;29.52
56052;BME280;41919;42.648;23.384;2022-09-29T06:11:50;93736.69;;;30.04;30.12
56052;BME280;41919;42.648;23.384;2022-09-29T06:14:16;93709.63;;;29.41;31.59
56052;BME280;41919;42.648;23.384;2022-09-29T06:16:41;93726.72;;;29.32;31.51
56052;BME280;41919;42.648;23.384;2022-09-29T06:19:07;93759.44;;;29.91;30.48
56052;BME280;41919;42.648;23.384;2022-09-29T06:21:32;93777.09;;;27.88;34.09
56052;BME280;41919;42.648;23.384;2022-09-29T06:23:59;93778.44;;;28.40;33.57
56052;BME280;41919;42.648;23.384;2022-09-29T06:26:26;93758.00;;;29.25;31.57
56052;BME280;41919;42.648;23.384;2022-09-29T06:28:53;93716.38;;;29.35;30.92
56052;BME280;41919;42.648;23.384;2022-09-29T06:31:22;93771.31;;;29.33;31.56
56052;BME280;41919;42.648;23.384;2022-09-29T06:33:48;93765.81;;;30.15;30.08
56052;BME280;41919;42.648;23.384;2022-09-29T06:36:22;93753.00;;;31.65;27.90
56052;BME280;41919;42.648;23.384;2022-09-29T06:39:07;93761.31;;;32.92;26.39
56052;BME280;41919;42.648;23.384;2022-09-29T06:41:33;93749.25;;;33.76;24.84
56052;BME280;41919;42.648;23.384;2022-09-29T06:44:00;93751.56;;;34.12;24.07
56052;BME280;41919;42.648;23.384;2022-09-29T06:46:25;93779.41;;;33.11;25.13
56052;BME280;41919;42.648;23.384;2022-09-29T06:48:55;93747.53;;;31.62;26.43
56052;BME280;41919;42.648;23.384;2022-09-29T06:51:21;93767.59;;;31.06;27.65
56052;BME280;41919;42.648;23.384;2022-09-29T06:53:48;93765.81;;;30.15;28.96
56052;BME280;41919;42.648;23.384;2022-09-29T06:56:14;93726.25;;;28.90;30.81
56052;BME280;41919;42.648;23.384;2022-09-29T06:58:39;93737.25;;;28.48;31.82
56052;BME280;41919;42.648;23.384;2022-09-29T07:01:05;93748.47;;;27.92;32.75
56052;BME280;41919;42.648;23.384;2022-09-29T07:03:31;93796.28;;;27.23;35.24
56052;BME280;41919;42.648;23.384;2022-09-29T07:06:01;93700.66;;;27.06;34.12
56052;BME280;41919;42.648;23.384;2022-09-29T07:08:27;93756.25;;;27.72;33.34
56052;BME280;41919;42.648;23.384;2022-09-29T07:10:53;93774.94;;;28.02;33.48
56052;BME280;41919;42.648;23.384;2022-09-29T07:13:19;93802.47;;;28.11;33.48
56052;BME280;41919;42.648;23.384;2022-09-29T07:15:44;93767.69;;;28.40;32.78
56052;BME280;41919;42.648;23.384;2022-09-29T07:18:12;93808.75;;;29.39;30.72
56052;BME280;41919;42.648;23.384;2022-09-29T07:20:38;93778.03;;;29.96;29.50
56052;BME280;41919;42.648;23.384;2022-09-29T07:23:05;93781.13;;;30.42;29.43
56052;BME280;41919;42.648;23.384;2022-09-29T07:25:32;93712.44;;;30.04;29.48
56052;BME280;41919;42.648;23.384;2022-09-29T07:27:59;93752.63;;;29.81;29.65
56052;BME280;41919;42.648;23.384;2022-09-29T07:30:24;93788.53;;;28.92;31.43
56052;BME280;41919;42.648;23.384;2022-09-29T07:32:52;93774.38;;;28.09;32.59
56052;BME280;41919;42.648;23.384;2022-09-29T07:35:18;93749.53;;;27.78;33.07
56052;BME280;41919;42.648;23.384;2022-09-29T07:37:50;93778.78;;;28.50;32.61
56052;BME280;41919;42.648;23.384;2022-09-29T07:40:15;93806.22;;;28.93;32.06
56052;BME280;41919;42.648;23.384;2022-09-29T07:42:41;93770.72;;;28.63;31.68
56052;BME280;41919;42.648;23.384;2022-09-29T07:45:07;93741.84;;;28.35;31.82
56052;BME280;41919;42.648;23.384;2022-09-29T07:47:32;93757.28;;;28.50;32.64
56052;BME280;41919;42.648;23.384;2022-09-29T07:49:58;93723.00;;;28.23;33.01
56052;BME280;41919;42.648;23.384;2022-09-29T07:52:23;93801.34;;;29.36;30.58
56052;BME280;41919;42.648;23.384;2022-09-29T07:54:49;93750.38;;;29.27;30.40
56052;BME280;41919;42.648;23.384;2022-09-29T07:57:14;93782.38;;;29.44;31.07
56052;BME280;41919;42.648;23.384;2022-09-29T07:59:39;93811.59;;;29.58;30.80
56052;BME280;41919;42.648;23.384;2022-09-29T08:02:05;93815.56;;;29.89;30.30
56052;BME280;41919;42.648;23.384;2022-09-29T08:04:32;93772.53;;;29.64;30.17
56052;BME280;41919;42.648;23.384;2022-09-29T08:06:57;93811.16;;;30.13;30.67
56052;BME280;41919;42.648;23.384;2022-09-29T08:09:22;93804.69;;;30.77;28.68
56052;BME280;41919;42.648;23.384;2022-09-29T08:11:49;93773.38;;;30.57;29.03
56052;BME280;41919;42.648;23.384;2022-09-29T08:14:14;93805.75;;;30.73;28.91
56052;BME280;41919;42.648;23.384;2022-09-29T08:16:39;93831.50;;;30.26;29.38
56052;BME280;41919;42.648;23.384;2022-09-29T08:19:05;93817.91;;;29.90;30.62
56052;BME280;41919;42.648;23.384;2022-09-29T08:21:31;93786.59;;;29.05;30.59
56052;BME280;41919;42.648;23.384;2022-09-29T08:24:01;93795.56;;;29.09;31.38
56052;BME280;41919;42.648;23.384;2022-09-29T08:26:31;93705.63;;;28.82;31.75
56052;BME280;41919;42.648;23.384;2022-09-29T08:28:57;93824.03;;;30.03;29.98
56052;BME280;41919;42.648;23.384;2022-09-29T08:31:22;93788.41;;;29.82;30.30
56052;BME280;41919;42.648;23.384;2022-09-29T08:33:49;93775.06;;;29.57;30.60
56052;BME280;41919;42.648;23.384;2022-09-29T08:36:19;93831.94;;;29.84;30.21
56052;BME280;41919;42.648;23.384;2022-09-29T08:38:47;93779.91;;;29.51;30.36
56052;BME280;41919;42.648;23.384;2022-09-29T08:43:45;93800.25;;;30.37;29.81
56052;BME280;41919;42.648;23.384;2022-09-29T08:46:32;93832.59;;;31.17;28.22
56052;BME280;41919;42.648;23.384;2022-09-29T08:49:02;93778.13;;;31.31;27.79
56052;BME280;41919;42.648;23.384;2022-09-29T08:51:31;93833.81;;;31.39;28.33
56052;BME280;41919;42.648;23.384;2022-09-29T08:54:02;93830.41;;;31.42;28.09
56052;BME280;41919;42.648;23.384;2022-09-29T08:56:32;93827.56;;;30.83;29.09
56052;BME280;41919;42.648;23.384;2022-09-29T08:58:58;93777.66;;;30.58;28.54
56052;BME280;41919;42.648;23.384;2022-09-29T09:23:19;93840.13;;;27.27;34.59
56052;BME280;41919;42.648;23.384;2022-09-29T09:25:48;93797.59;;;27.38;34.22
56052;BME280;41919;42.648;23.384;2022-09-29T09:28:16;93843.25;;;27.71;34.17
56052;BME280;41919;42.648;23.384;2022-09-29T09:33:29;93805.63;;;28.13;32.20
56052;BME280;41919;42.648;23.384;2022-09-29T09:36:10;93829.00;;;28.71;31.93
56052;BME280;41919;42.648;23.384;2022-09-29T09:39:03;93830.22;;;28.98;31.06
56052;BME280;41919;42.648;23.384;2022-09-29T09:41:32;93820.72;;;29.13;31.09
56052;BME280;41919;42.648;23.384;2022-09-29T09:44:13;93823.59;;;29.32;30.84
56052;BME280;41919;42.648;23.384;2022-09-29T09:46:48;93831.31;;;29.09;30.99
56052;BME280;41919;42.648;23.384;2022-09-29T09:49:23;93785.06;;;28.54;30.64
56052;BME280;41919;42.648;23.384;2022-09-29T09:54:44;93829.03;;;28.38;29.97
56052;BME280;41919;42.648;23.384;2022-09-29T10:02:22;93803.72;;;28.14;30.71
56052;BME280;41919;42.648;23.384;2022-09-29T10:04:50;93758.22;;;27.63;31.34
56052;BME280;41919;42.648;23.384;2022-09-29T10:07:18;93831.53;;;28.09;31.41
56052;BME280;41919;42.648;23.384;2022-09-29T10:09:44;93818.25;;;28.13;31.13
56052;BME280;41919;42.648;23.384;2022-09-29T10:12:18;93821.28;;;28.24;30.08
56052;BME280;41919;42.648;23.384;2022-09-29T10:14:58;93837.91;;;28.50;29.80
56052;BME280;41919;42.648;23.384;2022-09-29T10:17:31;93814.50;;;28.39;28.97
56052;BME280;41919;42.648;23.384;2022-09-29T10:20:04;93813.34;;;28.27;29.87
56052;BME280;41919;42.648;23.384;2022-09-29T10:22:30;93825.25;;;27.93;30.34
56052;BME280;41919;42.648;23.384;2022-09-29T10:25:17;93820.34;;;27.74;29.86
56052;BME280;41919;42.648;23.384;2022-09-29T10:27:52;93777.31;;;27.28;30.15
56052;BME280;41919;42.648;23.384;2022-09-29T10:30:22;93829.91;;;27.42;30.01
56052;BME280;41919;42.648;23.384;2022-09-29T10:32:52;93836.41;;;27.62;29.86
56052;BME280;41919;42.648;23.384;2022-09-29T10:35:25;93788.16;;;27.11;30.88
56052;BME280;41919;42.648;23.384;2022-09-29T10:38:00;93841.09;;;27.44;30.19
56052;BME280;41919;42.648;23.384;2022-09-29T10:40:27;93830.50;;;27.47;30.47
56052;BME280;41919;42.648;23.384;2022-09-29T10:42:55;93839.19;;;27.65;30.28
56052;BME280;41919;42.648;23.384;2022-09-29T10:45:28;93829.44;;;27.61;29.79
56052;BME280;41919;42.648;23.384;2022-09-29T10:50:36;93842.00;;;27.48;30.09
56052;BME280;41919;42.648;23.384;2022-09-29T10:53:21;93831.50;;;27.43;31.02
56052;BME280;41919;42.648;23.384;2022-09-29T10:55:53;93816.69;;;26.47;30.99
56052;BME280;41919;42.648;23.384;2022-09-29T11:01:05;93775.34;;;25.54;32.40
56052;BME280;41919;42.648;23.384;2022-09-29T11:03:33;93771.72;;;25.50;32.82
56052;BME280;41919;42.648;23.384;2022-09-29T11:06:12;93790.00;;;25.56;32.93
56052;BME280;41919;42.648;23.384;2022-09-29T11:09:01;93809.81;;;25.64;33.10
56052;BME280;41919;42.648;23.384;2022-09-29T11:11:38;93759.63;;;25.26;33.13
56052;BME280;41919;42.648;23.384;2022-09-29T11:14:04;93813.91;;;25.44;32.94
56052;BME280;41919;42.648;23.384;2022-09-29T11:16:37;93803.66;;;25.63;33.24
56052;BME280;41919;42.648;23.384;2022-09-29T11:19:08;93809.28;;;25.88;33.01
56052;BME280;41919;42.648;23.384;2022-09-29T11:27:22;93802.31;;;26.13;32.89
56052;BME280;41919;42.648;23.384;2022-09-29T11:30:09;93788.97;;;26.05;32.50
56052;BME280;41919;42.648;23.384;2022-09-29T11:33:05;93777.19;;;25.97;33.14
56052;BME280;41919;42.648;23.384;2022-09-29T11:38:55;93745.97;;;25.28;33.89
56052;BME280;41919;42.648;23.384;2022-09-29T11:47:35;93798.59;;;25.10;35.17
56052;BME280;41919;42.648;23.384;2022-09-29T11:58:49;93786.00;;;24.84;35.90
56052;BME280;41919;42.648;23.384;2022-09-29T12:10:18;93784.22;;;24.62;34.90
56052;BME280;41919;42.648;23.384;2022-09-29T12:15:38;93780.16;;;24.64;34.11
56052;BME280;41919;42.648;23.384;2022-09-29T12:18:13;93730.38;;;24.37;34.91
56052;BME280;41919;42.648;23.384;2022-09-29T12:20:44;93768.06;;;24.76;34.91
56052;BME280;41919;42.648;23.384;2022-09-29T12:23:13;93777.84;;;24.89;34.27
56052;BME280;41919;42.648;23.384;2022-09-29T12:25:51;93777.84;;;24.89;33.97
56052;BME280;41919;42.648;23.384;2022-09-29T12:28:22;93786.28;;;24.74;33.55
56052;BME280;41919;42.648;23.384;2022-09-29T12:30:55;93794.63;;;24.72;33.58
56052;BME280;41919;42.648;23.384;2022-09-29T12:33:31;93776.53;;;24.60;34.29
56052;BME280;41919;42.648;23.384;2022-09-29T12:38:38;93777.13;;;24.57;33.60
56052;BME280;41919;42.648;23.384;2022-09-29T12:44:00;93788.50;;;24.40;33.10
56052;BME280;41919;42.648;23.384;2022-09-29T12:46:50;93733.41;;;24.04;33.23
56052;BME280;41919;42.648;23.384;2022-09-29T12:49:25;93751.13;;;24.40;33.42
56052;BME280;41919;42.648;23.384;2022-09-29T12:51:55;93787.84;;;24.75;33.80
56052;BME280;41919;42.648;23.384;2022-09-29T12:54:28;93793.97;;;24.75;34.60
56052;BME280;41919;42.648;23.384;2022-09-29T12:57:05;93739.44;;;24.68;33.40
56052;BME280;41919;42.648;23.384;2022-09-29T12:59:44;93785.41;;;25.22;33.99
56052;BME280;41919;42.648;23.384;2022-09-29T13:08:22;93792.78;;;25.77;33.05
56052;BME280;41919;42.648;23.384;2022-09-29T13:10:58;93797.53;;;25.72;32.93
56052;BME280;41919;42.648;23.384;2022-09-29T13:24:13;93670.00;;;24.01;35.17
56052;BME280;41919;42.648;23.384;2022-09-29T13:29:41;93781.53;;;24.53;35.08
56052;BME280;41919;42.648;23.384;2022-09-29T13:32:08;93791.66;;;24.42;35.29
56052;BME280;41919;42.648;23.384;2022-09-29T13:34:36;93800.38;;;24.25;35.75
56052;BME280;41919;42.648;23.384;2022-09-29T13:37:12;93799.25;;;24.18;36.27
56052;BME280;41919;42.648;23.384;2022-09-29T13:39:41;93747.22;;;23.75;36.24
56052;BME280;41919;42.648;23.384;2022-09-29T13:47:45;93797.91;;;23.75;37.35
56052;BME280;41919;42.648;23.384;2022-09-29T13:58:24;93824.94;;;23.15;39.86
56052;BME280;41919;42.648;23.384;2022-09-29T14:00:52;93761.34;;;22.71;40.38
56052;BME280;41919;42.648;23.384;2022-09-29T14:05:56;93765.19;;;22.65;40.90
56052;BME280;41919;42.648;23.384;2022-09-29T14:08:30;93756.91;;;22.67;41.91
56052;BME280;41919;42.648;23.384;2022-09-29T14:11:29;93820.38;;;23.01;42.05
56052;BME280;41919;42.648;23.384;2022-09-29T14:14:05;93766.16;;;22.69;42.73
56052;BME280;41919;42.648;23.384;2022-09-29T14:16:38;93780.66;;;22.77;42.37
56052;BME280;41919;42.648;23.384;2022-09-29T14:21:57;93838.44;;;22.90;44.38
56052;BME280;41919;42.648;23.384;2022-09-29T14:27:24;93811.91;;;22.16;49.36
56052;BME280;41919;42.648;23.384;2022-09-29T14:29:57;93835.91;;;21.97;49.84
56052;BME280;41919;42.648;23.384;2022-09-29T14:32:55;93891.25;;;21.81;50.73
56052;BME280;41919;42.648;23.384;2022-09-29T14:35:38;93923.47;;;20.93;59.89
56052;BME280;41919;42.648;23.384;2022-09-29T14:40:30;93864.22;;;20.26;65.78
56052;BME280;41919;42.648;23.384;2022-09-29T14:43:10;93874.28;;;20.29;66.06
56052;BME280;41919;42.648;23.384;2022-09-29T14:49:14;93927.22;;;20.39;70.07
56052;BME280;41919;42.648;23.384;2022-09-29T14:52:20;93897.72;;;19.82;70.67
56052;BME280;41919;42.648;23.384;2022-09-29T14:57:31;93935.63;;;20.17;70.98
56052;BME280;41919;42.648;23.384;2022-09-29T15:00:15;93932.34;;;20.30;70.81
56052;BME280;41919;42.648;23.384;2022-09-29T15:02:45;93898.19;;;20.24;72.13
56052;BME280;41919;42.648;23.384;2022-09-29T15:05:30;93854.28;;;20.07;72.08
56052;BME280;41919;42.648;23.384;2022-09-29T15:07:57;93916.78;;;20.18;73.81
56052;BME280;41919;42.648;23.384;2022-09-29T15:10:43;93909.19;;;20.36;72.63
56052;BME280;41919;42.648;23.384;2022-09-29T15:13:26;93856.34;;;20.15;73.09
56052;BME280;41919;42.648;23.384;2022-09-29T15:16:21;93847.59;;;20.15;72.61
56052;BME280;41919;42.648;23.384;2022-09-29T15:19:22;93889.72;;;20.46;68.81
56052;BME280;41919;42.648;23.384;2022-09-29T15:27:12;93900.72;;;20.63;73.15
56052;BME280;41919;42.648;23.384;2022-09-29T15:29:52;93848.97;;;20.36;74.09
56052;BME280;41919;42.648;23.384;2022-09-29T15:32:25;93904.41;;;20.67;74.57
56052;BME280;41919;42.648;23.384;2022-09-29T15:34:52;93914.22;;;20.37;74.99
56052;BME280;41919;42.648;23.384;2022-09-29T15:37:24;93924.84;;;19.74;76.20
56052;BME280;41919;42.648;23.384;2022-09-29T15:39:52;93939.25;;;19.03;80.23
56052;BME280;41919;42.648;23.384;2022-09-29T15:42:22;93903.94;;;18.42;79.65
56052;BME280;41919;42.648;23.384;2022-09-29T15:44:52;93956.56;;;18.64;80.37
56052;BME280;41919;42.648;23.384;2022-09-29T15:47:41;93960.75;;;18.86;80.03
56052;BME280;41919;42.648;23.384;2022-09-29T15:50:23;93957.47;;;19.09;80.00
56052;BME280;41919;42.648;23.384;2022-09-29T15:52:49;93896.66;;;18.89;80.59
56052;BME280;41919;42.648;23.384;2022-09-29T15:55:19;93933.38;;;19.16;82.20
56052;BME280;41919;42.648;23.384;2022-09-29T15:57:47;93912.44;;;19.19;81.44
56052;BME280;41919;42.648;23.384;2022-09-29T16:02:58;93889.31;;;19.30;79.04
56052;BME280;41919;42.648;23.384;2022-09-29T16:05:28;93918.00;;;19.63;77.50